Time;durP1;ratioP1;P1;durP2;ratioP2;P2;SDS_P1;SDS_P2;PMS_P1;PMS_P2;Temp;Humidity;BMP_temperature;BMP_pressure;BME280_temperature;BME280_humidity;BME280_pressure;Samples;Min_cycle;Max_cycle;Signal;HPM_P1;HPM_P2
2021/04/12 00:00:33;;;;;;;7.75;5.45;;;;;;;;;;5113924;28;20055;-69
2021/04/12 00:03:05;;;;;;;7.70;5.30;;;;;;;;;;5113670;28;20028;-69
2021/04/12 00:05:35;;;;;;;8.35;5.90;;;;;;;;;;5113884;28;20024;-70
2021/04/12 00:08:08;;;;;;;12.90;7.40;;;;;;;;;;5113973;28;20076;-70
2021/04/12 00:10:34;;;;;;;11.55;7.03;;;;;;;;;;5114114;28;20034;-70
2021/04/12 00:13:08;;;;;;;13.35;7.72;;;;;;;;;;5129666;28;20099;-70
2021/04/12 00:16:03;;;;;;;9.30;6.90;;;;;;;;;;5113666;28;20460;-69
2021/04/12 00:18:29;;;;;;;10.60;6.80;;;;;;;;;;5099667;28;20044;-70
2021/04/12 00:20:56;;;;;;;8.43;6.13;;;;;;;;;;5113521;28;20020;-70
2021/04/12 00:23:31;;;;;;;8.93;6.25;;;;;;;;;;5113766;28;20559;-68
2021/04/12 00:25:59;;;;;;;7.43;5.47;;;;;;;;;;5113670;28;20107;-71
2021/04/12 00:28:52;;;;;;;9.82;6.75;;;;;;;;;;5114087;28;20107;-71
2021/04/12 00:31:26;;;;;;;11.13;6.90;;;;;;;;;;5089418;28;20412;-70
2021/04/12 00:33:56;;;;;;;7.43;5.82;;;;;;;;;;5113491;28;20032;-70
2021/04/12 00:36:27;;;;;;;7.88;5.60;;;;;;;;;;5129306;28;20114;-72
2021/04/12 00:39:00;;;;;;;6.78;5.47;;;;;;;;;;5113270;28;20081;-72
2021/04/12 00:41:31;;;;;;;7.63;5.07;;;;;;;;;;5113678;28;20437;-72
2021/04/12 00:43:57;;;;;;;8.50;5.10;;;;;;;;;;5115524;28;20028;-72
2021/04/12 00:46:42;;;;;;;8.73;5.78;;;;;;;;;;5116339;28;20068;-72
2021/04/12 00:49:24;;;;;;;5.15;4.70;;;;;;;;;;5117285;28;20034;-72
2021/04/12 00:51:50;;;;;;;8.75;5.30;;;;;;;;;;5116243;28;20035;-72
2021/04/12 00:54:28;;;;;;;7.40;5.20;;;;;;;;;;5133696;27;20082;-72
2021/04/12 00:57:07;;;;;;;8.10;5.07;;;;;;;;;;5117508;27;20042;-72
2021/04/12 00:59:39;;;;;;;6.32;5.10;;;;;;;;;;5115852;28;20046;-73
2021/04/12 01:02:11;;;;;;;6.07;4.93;;;;;;;;;;5115827;28;20068;-71
2021/04/12 01:05:00;;;;;;;7.88;5.30;;;;;;;;;;5115676;28;20365;-71
2021/04/12 01:07:57;;;;;;;6.05;4.88;;;;;;;;;;5132784;27;20063;-70
2021/04/12 01:10:35;;;;;;;5.60;4.90;;;;;;;;;;5117217;28;20024;-70
2021/04/12 01:13:12;;;;;;;6.05;5.43;;;;;;;;;;5132857;27;20027;-70
2021/04/12 01:15:55;;;;;;;5.20;4.63;;;;;;;;;;5115521;28;20035;-70
2021/04/12 01:18:24;;;;;;;4.95;4.45;;;;;;;;;;5117176;27;20080;-69
2021/04/12 01:21:09;;;;;;;5.03;4.53;;;;;;;;;;5116706;28;20016;-71
2021/04/12 01:23:53;;;;;;;8.02;4.40;;;;;;;;;;5116810;28;20023;-71
2021/04/12 01:26:24;;;;;;;5.13;4.68;;;;;;;;;;5116831;28;20055;-71
2021/04/12 01:28:59;;;;;;;5.65;4.75;;;;;;;;;;5116340;28;20061;-70
2021/04/12 01:31:24;;;;;;;5.22;4.72;;;;;;;;;;5116458;28;20035;-70
2021/04/12 01:34:05;;;;;;;5.45;4.93;;;;;;;;;;5116643;28;20026;-71
2021/04/12 01:36:50;;;;;;;5.00;4.60;;;;;;;;;;5116345;28;20054;-71
2021/04/12 01:39:24;;;;;;;6.07;4.68;;;;;;;;;;5116322;28;20024;-70
2021/04/12 01:42:08;;;;;;;4.90;4.50;;;;;;;;;;5116497;28;20110;-69
2021/04/12 01:44:41;;;;;;;7.28;5.20;;;;;;;;;;5132371;27;20043;-71
2021/04/12 01:47:11;;;;;;;5.70;5.05;;;;;;;;;;5116456;27;20062;-71
2021/04/12 01:49:36;;;;;;;5.88;4.68;;;;;;;;;;5115974;28;20023;-71
2021/04/12 01:52:02;;;;;;;5.13;4.50;;;;;;;;;;5116082;28;20150;-70
2021/04/12 01:54:27;;;;;;;5.20;4.70;;;;;;;;;;5115776;28;20027;-70
2021/04/12 01:57:11;;;;;;;5.88;4.97;;;;;;;;;;5114786;28;20362;-69
2021/04/12 02:00:03;;;;;;;5.50;4.75;;;;;;;;;;5091232;28;20080;-69
2021/04/12 02:02:57;;;;;;;5.00;4.50;;;;;;;;;;5089849;28;20035;-69
2021/04/12 02:05:45;;;;;;;5.13;4.60;;;;;;;;;;5073968;28;20041;-70
2021/04/12 02:08:34;;;;;;;6.00;5.07;;;;;;;;;;5027363;28;20040;-69
2021/04/12 02:11:19;;;;;;;7.35;5.07;;;;;;;;;;5090682;28;20125;-69
2021/04/12 02:14:02;;;;;;;5.35;4.80;;;;;;;;;;5090879;28;20032;-69
2021/04/12 02:16:54;;;;;;;5.55;4.93;;;;;;;;;;5074955;28;20028;-69
2021/04/12 02:19:19;;;;;;;5.50;4.85;;;;;;;;;;5075197;28;20024;-69
2021/04/12 02:22:01;;;;;;;5.28;4.75;;;;;;;;;;5075026;28;20380;-70
2021/04/12 02:24:44;;;;;;;5.15;4.65;;;;;;;;;;5074885;28;20093;-72
2021/04/12 02:27:13;;;;;;;6.25;5.13;;;;;;;;;;5090552;28;20103;-72
2021/04/12 02:29:42;;;;;;;8.13;5.40;;;;;;;;;;5090774;28;20028;-72
2021/04/12 02:32:17;;;;;;;6.03;5.43;;;;;;;;;;5074372;28;20033;-73
2021/04/12 02:35:02;;;;;;;6.35;5.25;;;;;;;;;;5074565;28;20470;-73
2021/04/12 02:37:46;;;;;;;6.63;5.50;;;;;;;;;;5074680;28;20017;-72
2021/04/12 02:40:35;;;;;;;6.05;4.90;;;;;;;;;;5074433;28;20131;-72
2021/04/12 02:43:02;;;;;;;5.63;4.82;;;;;;;;;;5074626;28;20023;-72
2021/04/12 02:45:47;;;;;;;4.88;4.43;;;;;;;;;;5074480;28;20020;-74
2021/04/12 02:48:33;;;;;;;5.15;4.65;;;;;;;;;;5074321;28;20031;-73
2021/04/12 02:51:11;;;;;;;6.28;5.10;;;;;;;;;;5057361;28;20406;-72
2021/04/12 02:53:50;;;;;;;7.00;5.30;;;;;;;;;;5054388;28;20110;-72
2021/04/12 02:56:33;;;;;;;6.40;4.90;;;;;;;;;;5054374;28;20399;-71
2021/04/12 02:59:08;;;;;;;5.60;5.00;;;;;;;;;;5086554;28;20043;-69
2021/04/12 03:01:47;;;;;;;6.60;4.78;;;;;;;;;;5094234;28;20535;-71
2021/04/12 03:04:12;;;;;;;6.50;5.60;;;;;;;;;;5094508;28;20517;-74
2021/04/12 03:07:06;;;;;;;5.88;5.30;;;;;;;;;;5093624;28;20051;-74
2021/04/12 03:09:52;;;;;;;7.00;5.53;;;;;;;;;;5094374;28;20024;-75
2021/04/12 03:12:23;;;;;;;7.25;6.55;;;;;;;;;;5094594;28;20024;-73
2021/04/12 03:15:08;;;;;;;7.90;5.75;;;;;;;;;;5093986;28;20055;-73
2021/04/12 03:17:46;;;;;;;8.93;6.97;;;;;;;;;;5094644;28;20450;-73
2021/04/12 03:20:34;;;;;;;33.65;19.92;;;;;;;;;;5094252;28;20024;-73
2021/04/12 03:23:15;;;;;;;20.83;13.73;;;;;;;;;;5082152;28;20044;-73
2021/04/12 03:25:59;;;;;;;44.60;25.55;;;;;;;;;;5093260;28;20024;-73
2021/04/12 03:28:38;;;;;;;37.10;22.98;;;;;;;;;;5094204;28;20039;-73
2021/04/12 03:31:15;;;;;;;26.98;14.40;;;;;;;;;;5093788;28;20461;-73
2021/04/12 03:33:45;;;;;;;38.30;16.55;;;;;;;;;;5092792;28;20064;-73
2021/04/12 03:36:22;;;;;;;44.67;17.95;;;;;;;;;;5092659;28;20097;-73
2021/04/12 03:38:51;;;;;;;40.65;16.50;;;;;;;;;;5092800;28;20032;-73
2021/04/12 03:41:26;;;;;;;35.13;14.25;;;;;;;;;;5093738;28;20073;-73
2021/04/12 03:44:10;;;;;;;35.88;14.02;;;;;;;;;;5094158;28;20028;-72
2021/04/12 03:46:45;;;;;;;19.77;9.65;;;;;;;;;;5109803;28;20053;-72
2021/04/12 03:49:13;;;;;;;31.10;12.25;;;;;;;;;;5093740;28;20026;-72
2021/04/12 03:51:43;;;;;;;21.40;11.35;;;;;;;;;;5094097;28;20016;-72
2021/04/12 03:54:11;;;;;;;26.00;12.20;;;;;;;;;;5093363;28;20028;-73
2021/04/12 03:56:47;;;;;;;31.58;14.43;;;;;;;;;;5093627;28;20085;-72
2021/04/12 03:59:30;;;;;;;16.77;10.02;;;;;;;;;;5112078;28;20123;-73
2021/04/12 04:01:57;;;;;;;12.32;7.88;;;;;;;;;;5113651;28;20431;-73
2021/04/12 04:04:29;;;;;;;17.42;9.75;;;;;;;;;;5113933;28;20035;-73
2021/04/12 04:06:54;;;;;;;18.05;10.18;;;;;;;;;;5114171;28;20020;-76
2021/04/12 04:09:35;;;;;;;19.25;10.52;;;;;;;;;;5113958;28;20377;-72
2021/04/12 04:12:19;;;;;;;13.68;9.20;;;;;;;;;;5113881;28;20035;-72
2021/04/12 04:15:03;;;;;;;16.25;9.40;;;;;;;;;;5109075;28;20100;-70
2021/04/12 04:17:48;;;;;;;11.95;7.63;;;;;;;;;;5112262;28;20385;-73
2021/04/12 04:20:14;;;;;;;10.77;7.55;;;;;;;;;;5117388;28;20073;-73
2021/04/12 04:22:58;;;;;;;13.73;8.30;;;;;;;;;;5093946;28;20369;-72
2021/04/12 04:25:44;;;;;;;14.48;9.20;;;;;;;;;;5110884;28;20036;-73
2021/04/12 04:28:28;;;;;;;22.40;9.05;;;;;;;;;;5109602;28;20035;-73
2021/04/12 04:31:04;;;;;;;12.82;7.20;;;;;;;;;;5098981;28;20032;-73
2021/04/12 04:33:58;;;;;;;9.00;6.40;;;;;;;;;;5114831;28;20032;-74
2021/04/12 04:36:33;;;;;;;17.67;8.15;;;;;;;;;;5080067;28;20044;-73
2021/04/12 04:39:07;;;;;;;17.88;8.20;;;;;;;;;;5097471;28;20059;-73
2021/04/12 04:41:51;;;;;;;16.75;7.40;;;;;;;;;;5111373;28;20039;-71
2021/04/12 04:44:29;;;;;;;15.25;8.32;;;;;;;;;;5099504;28;20035;-71
2021/04/12 04:47:14;;;;;;;249.90;146.40;;;;;;;;;;5133456;27;20031;-71
2021/04/12 04:49:46;;;;;;;21.42;19.15;;;;;;;;;;5105612;28;20476;-71
2021/04/12 04:52:20;;;;;;;16.52;11.52;;;;;;;;;;5116013;28;20016;-71
2021/04/12 04:54:48;;;;;;;11.23;8.63;;;;;;;;;;5114551;28;20107;-71
2021/04/12 04:57:32;;;;;;;10.93;7.75;;;;;;;;;;5105559;28;20022;-71
2021/04/12 05:00:05;;;;;;;13.70;9.40;;;;;;;;;;5096837;28;20095;-70
2021/04/12 05:02:39;;;;;;;16.02;10.20;;;;;;;;;;5096521;28;20511;-70
2021/04/12 05:05:04;;;;;;;14.20;9.63;;;;;;;;;;5096561;28;20028;-70
2021/04/12 05:07:48;;;;;;;12.13;7.57;;;;;;;;;;5113573;28;20452;-70
2021/04/12 05:10:32;;;;;;;17.35;9.10;;;;;;;;;;5114841;28;20031;-69
2021/04/12 05:13:03;;;;;;;9.35;6.97;;;;;;;;;;5113626;28;20148;-72
2021/04/12 05:15:57;;;;;;;10.13;6.78;;;;;;;;;;5115238;28;20519;-73
2021/04/12 05:18:36;;;;;;;7.82;7.03;;;;;;;;;;5119243;27;20036;-73
2021/04/12 05:21:14;;;;;;;6.38;5.72;;;;;;;;;;5115994;28;20445;-73
2021/04/12 05:23:53;;;;;;;8.15;5.82;;;;;;;;;;5098379;28;20473;-71
2021/04/12 05:26:37;;;;;;;9.43;5.68;;;;;;;;;;5100559;28;20035;-69
2021/04/12 05:29:12;;;;;;;6.38;5.22;;;;;;;;;;5099829;28;20390;-69
2021/04/12 05:31:48;;;;;;;9.18;5.65;;;;;;;;;;5094987;28;20038;-69
2021/04/12 05:34:22;;;;;;;8.80;5.72;;;;;;;;;;5095157;28;20046;-69
2021/04/12 05:36:57;;;;;;;7.57;5.75;;;;;;;;;;5096072;28;20028;-69
2021/04/12 05:39:38;;;;;;;9.32;5.60;;;;;;;;;;5096173;28;20063;-66
2021/04/12 05:42:03;;;;;;;;;;;;;;;;;;5094993;28;20024;-66
2021/04/12 05:44:29;;;;;;;7.50;5.25;;;;;;;;;;5096164;28;19961;-66
2021/04/12 05:47:18;;;;;;;5.65;5.15;;;;;;;;;;5123643;27;20024;-66
2021/04/12 05:49:44;;;;;;;7.03;4.88;;;;;;;;;;5116245;28;20038;-66
2021/04/12 05:52:13;;;;;;;9.27;4.93;;;;;;;;;;5114960;28;20019;-66
2021/04/12 05:54:41;;;;;;;6.70;5.20;;;;;;;;;;5116060;28;20032;-66
2021/04/12 05:57:14;;;;;;;7.88;4.90;;;;;;;;;;5097597;28;20043;-66
2021/04/12 05:59:55;;;;;;;7.32;5.05;;;;;;;;;;5098124;28;20067;-65
2021/04/12 06:02:39;;;;;;;6.80;4.35;;;;;;;;;;5097831;28;20031;-66
2021/04/12 06:05:14;;;;;;;5.65;4.13;;;;;;;;;;5115853;28;20363;-66
2021/04/12 06:07:40;;;;;;;4.45;4.05;;;;;;;;;;5115280;27;20032;-67
2021/04/12 06:10:21;;;;;;;7.03;4.18;;;;;;;;;;5097232;28;20038;-66
2021/04/12 06:12:50;;;;;;;6.28;4.30;;;;;;;;;;5115574;28;20051;-66
2021/04/12 06:15:36;;;;;;;6.95;4.07;;;;;;;;;;5102222;28;20028;-67
2021/04/12 06:18:20;;;;;;;6.80;4.22;;;;;;;;;;5095192;28;20026;-66
2021/04/12 06:20:55;;;;;;;4.72;4.28;;;;;;;;;;5083794;28;20124;-66
2021/04/12 06:23:41;;;;;;;6.13;3.83;;;;;;;;;;5114726;28;20031;-67
2021/04/12 06:26:10;;;;;;;5.53;4.25;;;;;;;;;;5114561;28;20020;-67
2021/04/12 06:28:39;;;;;;;8.23;5.15;;;;;;;;;;5114319;28;20084;-66
2021/04/12 06:31:22;;;;;;;8.47;4.90;;;;;;;;;;5102949;28;20081;-67
2021/04/12 06:33:51;;;;;;;6.07;5.22;;;;;;;;;;5107255;28;20023;-72
2021/04/12 06:36:23;;;;;;;5.30;4.40;;;;;;;;;;5098910;28;20027;-72
2021/04/12 06:38:53;;;;;;;5.72;4.35;;;;;;;;;;5103341;28;20447;-72
2021/04/12 06:41:32;;;;;;;6.38;4.80;;;;;;;;;;5117220;28;20449;-72
2021/04/12 06:44:16;;;;;;;5.65;4.40;;;;;;;;;;5114756;28;20441;-66
2021/04/12 06:47:02;;;;;;;5.20;4.32;;;;;;;;;;5114900;28;20365;-72
2021/04/12 06:49:46;;;;;;;6.40;4.22;;;;;;;;;;5103921;28;20500;-65
2021/04/12 06:52:24;;;;;;;6.88;4.13;;;;;;;;;;5114921;28;20106;-66
2021/04/12 06:55:15;;;;;;;12.88;4.72;;;;;;;;;;5114777;28;20036;-65
2021/04/12 06:58:00;;;;;;;9.27;4.40;;;;;;;;;;5114376;28;20063;-65
2021/04/12 07:00:48;;;;;;;5.85;3.75;;;;;;;;;;5115001;28;20069;-70
2021/04/12 07:03:32;;;;;;;6.03;3.53;;;;;;;;;;5114711;28;20027;-66
2021/04/12 07:06:07;;;;;;;3.55;3.25;;;;;;;;;;5114854;28;20082;-65
2021/04/12 07:08:48;;;;;;;4.82;3.60;;;;;;;;;;5114793;28;20038;-65
2021/04/12 07:11:13;;;;;;;;;;;;;;;;;;5115385;28;20043;-66
2021/04/12 07:13:42;;;;;;;5.13;3.22;;;;;;;;;;5114578;28;19903;-66
2021/04/12 07:16:07;;;;;;;3.72;2.90;;;;;;;;;;5114687;28;20470;-66
2021/04/12 07:18:51;;;;;;;4.82;2.90;;;;;;;;;;5114493;28;20011;-66
2021/04/12 07:21:17;;;;;;;3.47;2.65;;;;;;;;;;5114415;28;20055;-65
2021/04/12 07:24:01;;;;;;;2.95;2.72;;;;;;;;;;5098597;28;20097;-66
2021/04/12 07:26:45;;;;;;;3.17;2.88;;;;;;;;;;5093935;28;20489;-66
2021/04/12 07:29:26;;;;;;;3.28;2.72;;;;;;;;;;5093851;28;20020;-65
2021/04/12 07:32:10;;;;;;;5.38;2.90;;;;;;;;;;5094088;28;20032;-65
2021/04/12 07:34:48;;;;;;;3.42;3.13;;;;;;;;;;5092740;28;20028;-65
2021/04/12 07:37:44;;;;;;;5.22;3.20;;;;;;;;;;5099279;28;20106;-65
2021/04/12 07:40:28;;;;;;;4.65;3.30;;;;;;;;;;5020250;28;20508;-66
2021/04/12 07:43:14;;;;;;;4.10;2.92;;;;;;;;;;5093896;28;20016;-66
2021/04/12 07:45:56;;;;;;;5.63;3.72;;;;;;;;;;5108549;28;20428;-66
2021/04/12 07:48:25;;;;;;;4.55;3.70;;;;;;;;;;5114037;28;20118;-70
2021/04/12 07:51:20;;;;;;;5.22;3.05;;;;;;;;;;5095776;28;20032;-70
2021/04/12 07:54:05;;;;;;;4.78;3.35;;;;;;;;;;5103458;28;20032;-71
2021/04/12 07:56:34;;;;;;;4.93;3.20;;;;;;;;;;5092899;28;20122;-71
2021/04/12 07:59:03;;;;;;;4.82;3.03;;;;;;;;;;5089919;28;20087;-71
2021/04/12 08:01:47;;;;;;;3.17;2.88;;;;;;;;;;5092031;28;20020;-71
2021/04/12 08:04:13;;;;;;;3.45;2.88;;;;;;;;;;5092390;28;20124;-71
2021/04/12 08:06:57;;;;;;;3.15;2.85;;;;;;;;;;5092496;28;20442;-71
2021/04/12 08:09:38;;;;;;;4.93;2.90;;;;;;;;;;5092804;28;20490;-71
2021/04/12 08:12:19;;;;;;;3.88;2.95;;;;;;;;;;5092092;28;20036;-71
2021/04/12 08:14:47;;;;;;;4.72;2.80;;;;;;;;;;5092951;28;20036;-71
2021/04/12 08:17:31;;;;;;;2.95;1.88;;;;;;;;;;5093043;28;20031;-71
2021/04/12 08:20:16;;;;;;;2.72;1.85;;;;;;;;;;5093157;28;20028;-71
2021/04/12 08:22:44;;;;;;;2.25;2.05;;;;;;;;;;5093132;28;20020;-71
2021/04/12 08:25:13;;;;;;;2.25;2.00;;;;;;;;;;5093178;28;20028;-71
2021/04/12 08:27:41;;;;;;;1.85;1.60;;;;;;;;;;5093037;28;20110;-71
2021/04/12 08:30:06;;;;;;;2.17;1.98;;;;;;;;;;5093012;28;20530;-71
2021/04/12 08:32:38;;;;;;;1.85;1.75;;;;;;;;;;5092997;28;20085;-71
2021/04/12 08:35:14;;;;;;;3.00;2.03;;;;;;;;;;5092862;28;20028;-71
2021/04/12 08:37:45;;;;;;;2.72;2.10;;;;;;;;;;5092853;28;20024;-71
2021/04/12 08:40:20;;;;;;;3.05;2.47;;;;;;;;;;5092807;28;20033;-71
2021/04/12 08:43:18;;;;;;;2.35;1.75;;;;;;;;;;5092807;28;20024;-71
2021/04/12 08:45:58;;;;;;;5.75;2.53;;;;;;;;;;5047620;28;20036;-71
2021/04/12 08:48:23;;;;;;;3.03;2.38;;;;;;;;;;5092336;28;20032;-71
2021/04/12 08:51:01;;;;;;;1.92;1.58;;;;;;;;;;5092831;28;20413;-71
2021/04/12 08:53:45;;;;;;;3.63;1.95;;;;;;;;;;5092767;28;20071;-71
2021/04/12 08:56:37;;;;;;;4.45;2.90;;;;;;;;;;5092611;28;20028;-71
2021/04/12 08:59:21;;;;;;;3.60;2.28;;;;;;;;;;5061130;28;20058;-71
2021/04/12 09:02:05;;;;;;;2.92;2.25;;;;;;;;;;5092693;28;20028;-71
2021/04/12 09:04:51;;;;;;;2.35;2.13;;;;;;;;;;5092394;28;20036;-71
2021/04/12 09:07:28;;;;;;;2.10;1.85;;;;;;;;;;5096362;28;20048;-71
2021/04/12 09:10:14;;;;;;;1.73;1.63;;;;;;;;;;5096208;28;20035;-71
2021/04/12 09:12:40;;;;;;;3.40;1.77;;;;;;;;;;5094463;28;20467;-71
2021/04/12 09:15:05;;;;;;;1.67;1.40;;;;;;;;;;5096248;28;20031;-71
2021/04/12 09:17:30;;;;;;;3.03;2.20;;;;;;;;;;5096157;28;20431;-71
2021/04/12 09:20:05;;;;;;;2.10;1.85;;;;;;;;;;5096098;28;20028;-71
2021/04/12 09:22:49;;;;;;;1.77;1.65;;;;;;;;;;5096056;28;20445;-71
2021/04/12 09:25:34;;;;;;;4.15;1.95;;;;;;;;;;5095993;28;20031;-71
2021/04/12 09:28:17;;;;;;;3.95;2.38;;;;;;;;;;5095931;28;20032;-71
2021/04/12 09:31:18;;;;;;;3.15;1.90;;;;;;;;;;5095845;28;20028;-71
2021/04/12 09:34:03;;;;;;;9.90;7.05;;;;;;;;;;4997278;28;20038;-71
2021/04/12 09:36:47;;;;;;;2.40;2.20;;;;;;;;;;5088987;28;20109;-71
2021/04/12 09:39:15;;;;;;;4.53;2.10;;;;;;;;;;5095767;28;20020;-71
2021/04/12 09:42:04;;;;;;;2.65;2.42;;;;;;;;;;5095417;28;20031;-71
2021/04/12 09:44:34;;;;;;;3.35;2.53;;;;;;;;;;5056878;28;20032;-72
2021/04/12 09:47:28;;;;;;;2.40;2.00;;;;;;;;;;5095632;28;20038;-72
2021/04/12 09:50:26;;;;;;;3.35;1.85;;;;;;;;;;5095469;28;20382;-71
2021/04/12 09:53:28;;;;;;;2.20;1.55;;;;;;;;;;5080279;28;20390;-72
2021/04/12 09:56:15;;;;;;;2.13;2.00;;;;;;;;;;5094312;28;20463;-72
2021/04/12 09:59:22;;;;;;;2.28;2.00;;;;;;;;;;5110349;28;20490;-71
2021/04/12 10:02:22;;;;;;;3.35;2.30;;;;;;;;;;5013332;28;20092;-71
2021/04/12 10:05:16;;;;;;;2.35;2.13;;;;;;;;;;5080950;28;20408;-72
2021/04/12 10:07:56;;;;;;;3.55;1.98;;;;;;;;;;5116357;27;20475;-72
2021/04/12 10:10:22;;;;;;;5.78;2.90;;;;;;;;;;5111127;28;20376;-72
2021/04/12 10:13:04;;;;;;;2.85;2.30;;;;;;;;;;5111091;28;20028;-72
2021/04/12 10:15:30;;;;;;;3.50;2.50;;;;;;;;;;5110065;28;20144;-71
2021/04/12 10:18:24;;;;;;;3.67;2.78;;;;;;;;;;5114677;28;20011;-71
2021/04/12 10:20:52;;;;;;;3.70;2.80;;;;;;;;;;5098391;28;20044;-72
2021/04/12 10:23:18;;;;;;;5.03;3.70;;;;;;;;;;5112662;28;20517;-67
2021/04/12 10:25:48;;;;;;;7.78;4.70;;;;;;;;;;5117335;27;20029;-68
2021/04/12 10:28:20;;;;;;;6.97;3.92;;;;;;;;;;5095906;28;20481;-67
2021/04/12 10:30:49;;;;;;;6.65;4.40;;;;;;;;;;5109781;28;20064;-68
2021/04/12 10:33:35;;;;;;;8.00;5.47;;;;;;;;;;5115235;28;20020;-67
2021/04/12 10:36:05;;;;;;;8.93;4.95;;;;;;;;;;5114942;28;20354;-67
2021/04/12 10:38:32;;;;;;;7.60;5.20;;;;;;;;;;5115386;28;20180;-68
2021/04/12 10:41:26;;;;;;;7.20;4.78;;;;;;;;;;5110212;28;20373;-73
2021/04/12 10:44:18;;;;;;;4.88;4.15;;;;;;;;;;5074581;28;20036;-73
2021/04/12 10:47:06;;;;;;;7.32;4.43;;;;;;;;;;5113333;28;20042;-73
2021/04/12 10:49:51;;;;;;;10.10;4.65;;;;;;;;;;5113154;28;20028;-73
2021/04/12 10:52:23;;;;;;;5.82;3.75;;;;;;;;;;5113681;28;20028;-73
2021/04/12 10:55:06;;;;;;;4.80;2.85;;;;;;;;;;5109769;28;20027;-72
2021/04/12 10:57:39;;;;;;;5.22;3.75;;;;;;;;;;5112494;28;20180;-72
2021/04/12 11:00:05;;;;;;;9.80;3.50;;;;;;;;;;5115439;28;20036;-72
2021/04/12 11:02:59;;;;;;;7.90;4.45;;;;;;;;;;5115446;28;20031;-72
2021/04/12 11:05:27;;;;;;;6.45;3.85;;;;;;;;;;5109872;28;20039;-72
2021/04/12 11:08:17;;;;;;;5.15;3.35;;;;;;;;;;5114726;28;20124;-72
2021/04/12 11:10:43;;;;;;;4.10;3.05;;;;;;;;;;5114979;28;20122;-73
2021/04/12 11:13:27;;;;;;;5.35;3.00;;;;;;;;;;5115190;28;20055;-72
2021/04/12 11:16:12;;;;;;;5.20;3.05;;;;;;;;;;5114747;28;20460;-72
2021/04/12 11:18:39;;;;;;;3.30;2.58;;;;;;;;;;5114897;28;20027;-72
2021/04/12 11:21:05;;;;;;;3.42;2.70;;;;;;;;;;5114872;28;20044;-72
2021/04/12 11:23:41;;;;;;;3.72;2.30;;;;;;;;;;5113120;28;20442;-72
2021/04/12 11:26:06;;;;;;;5.05;2.95;;;;;;;;;;5114553;28;20047;-72
2021/04/12 11:28:35;;;;;;;3.63;3.03;;;;;;;;;;5114340;28;20024;-72
2021/04/12 11:31:12;;;;;;;5.00;3.58;;;;;;;;;;5114111;28;20023;-72
2021/04/12 11:33:48;;;;;;;3.67;3.28;;;;;;;;;;5113070;28;20039;-72
2021/04/12 11:36:27;;;;;;;5.88;3.08;;;;;;;;;;5113949;28;20453;-72
2021/04/12 11:39:02;;;;;;;9.98;3.75;;;;;;;;;;5114000;28;20028;-72
2021/04/12 11:41:30;;;;;;;4.43;3.92;;;;;;;;;;5114207;28;20102;-72
2021/04/12 11:43:58;;;;;;;7.97;3.95;;;;;;;;;;5114263;28;20015;-72
2021/04/12 11:46:40;;;;;;;6.75;3.63;;;;;;;;;;5114054;28;20032;-72
2021/04/12 11:49:19;;;;;;;9.45;3.72;;;;;;;;;;5114349;28;20030;-72
2021/04/12 11:52:02;;;;;;;5.68;4.35;;;;;;;;;;5095882;28;20031;-72
2021/04/12 11:54:40;;;;;;;4.90;4.05;;;;;;;;;;5113261;28;20122;-72
2021/04/12 11:57:15;;;;;;;7.80;4.40;;;;;;;;;;5113263;28;20080;-72
2021/04/12 11:59:45;;;;;;;5.60;3.35;;;;;;;;;;5114549;28;20516;-72
2021/04/12 12:02:21;;;;;;;7.57;4.28;;;;;;;;;;5114055;28;20085;-72
2021/04/12 12:04:56;;;;;;;6.95;5.20;;;;;;;;;;5113650;28;20024;-72
2021/04/12 12:07:22;;;;;;;8.38;6.22;;;;;;;;;;5095590;28;20031;-72
2021/04/12 12:09:50;;;;;;;8.02;6.30;;;;;;;;;;5113841;28;20437;-72
2021/04/12 12:12:35;;;;;;;7.15;6.32;;;;;;;;;;5113745;28;20499;-72
2021/04/12 12:15:19;;;;;;;8.48;6.63;;;;;;;;;;5095770;28;20026;-72
2021/04/12 12:18:06;;;;;;;8.57;5.75;;;;;;;;;;5113528;28;20024;-72
2021/04/12 12:20:34;;;;;;;8.02;6.68;;;;;;;;;;5113420;28;20524;-72
2021/04/12 12:23:20;;;;;;;8.60;7.80;;;;;;;;;;5112654;28;20055;-72
2021/04/12 12:25:48;;;;;;;8.18;7.10;;;;;;;;;;5111015;28;20047;-72
2021/04/12 12:28:22;;;;;;;9.25;7.88;;;;;;;;;;5113281;28;20120;-72
2021/04/12 12:31:03;;;;;;;10.27;7.63;;;;;;;;;;5113045;28;20024;-72
2021/04/12 12:33:32;;;;;;;7.45;5.80;;;;;;;;;;5095072;28;20024;-72
2021/04/12 12:35:57;;;;;;;7.07;6.47;;;;;;;;;;5113180;28;20023;-72
2021/04/12 12:38:32;;;;;;;9.30;6.32;;;;;;;;;;5129734;27;20027;-72
2021/04/12 12:41:02;;;;;;;6.97;5.78;;;;;;;;;;5117100;28;20031;-72
2021/04/12 12:43:28;;;;;;;;;;;;;;;;;;5118003;28;20076;-72
2021/04/12 12:45:55;;;;;;;10.75;8.20;;;;;;;;;;5099423;28;19904;-72
2021/04/12 12:48:27;;;;;;;7.78;7.03;;;;;;;;;;5117497;28;20036;-72
2021/04/12 12:50:55;;;;;;;10.85;7.80;;;;;;;;;;5132626;27;20028;-72
2021/04/12 12:53:25;;;;;;;12.93;8.35;;;;;;;;;;5117575;28;20024;-72
2021/04/12 12:55:54;;;;;;;16.90;10.02;;;;;;;;;;5113282;28;20054;-72
2021/04/12 12:58:21;;;;;;;11.68;8.95;;;;;;;;;;5103234;28;20048;-72
2021/04/12 13:00:49;;;;;;;11.48;9.35;;;;;;;;;;5102068;28;20044;-72
2021/04/12 13:03:28;;;;;;;14.68;11.02;;;;;;;;;;5111490;28;20096;-73
2021/04/12 13:05:56;;;;;;;15.23;13.63;;;;;;;;;;5096859;28;20078;-73
2021/04/12 13:08:29;;;;;;;10.75;7.97;;;;;;;;;;5096896;28;20106;-73
2021/04/12 13:10:55;;;;;;;9.30;7.72;;;;;;;;;;5096164;28;20032;-73
2021/04/12 13:13:26;;;;;;;12.52;8.82;;;;;;;;;;5096698;28;20019;-73
2021/04/12 13:15:53;;;;;;;15.85;10.48;;;;;;;;;;5096821;28;20024;-71
2021/04/12 13:18:22;;;;;;;12.88;10.15;;;;;;;;;;5096733;28;20073;-73
2021/04/12 13:21:11;;;;;;;40.90;26.00;;;;;;;;;;5108972;28;20051;-73
2021/04/12 13:23:43;;;;;;;17.73;11.95;;;;;;;;;;5104817;28;20036;-73
2021/04/12 13:26:18;;;;;;;17.92;11.57;;;;;;;;;;5116725;28;20055;-73
2021/04/12 13:28:44;;;;;;;18.08;12.10;;;;;;;;;;5116977;28;20518;-73
2021/04/12 13:31:14;;;;;;;21.52;14.00;;;;;;;;;;5116550;28;20027;-73
2021/04/12 13:33:49;;;;;;;10.20;8.45;;;;;;;;;;5115828;28;20020;-73
2021/04/12 13:36:16;;;;;;;14.20;11.30;;;;;;;;;;5116484;28;20506;-73
2021/04/12 13:38:42;;;;;;;11.25;9.30;;;;;;;;;;5116736;27;20019;-73
2021/04/12 13:41:16;;;;;;;16.48;11.73;;;;;;;;;;5116128;28;20019;-68
2021/04/12 13:43:44;;;;;;;16.25;12.55;;;;;;;;;;5115854;28;20488;-68
2021/04/12 13:46:19;;;;;;;16.27;11.50;;;;;;;;;;5116371;27;20023;-67
2021/04/12 13:48:47;;;;;;;14.10;11.02;;;;;;;;;;5116191;28;20106;-67
2021/04/12 13:51:16;;;;;;;15.75;12.13;;;;;;;;;;5115649;28;20076;-67
2021/04/12 13:53:59;;;;;;;14.60;11.95;;;;;;;;;;5116109;28;20034;-67
2021/04/12 13:56:27;;;;;;;14.63;11.55;;;;;;;;;;5115967;28;20063;-64
2021/04/12 13:59:01;;;;;;;16.30;11.63;;;;;;;;;;5114324;28;20035;-67
2021/04/12 14:01:36;;;;;;;17.23;10.82;;;;;;;;;;5115977;28;20432;-66
2021/04/12 14:04:01;;;;;;;10.73;8.50;;;;;;;;;;5096165;28;20019;-66
2021/04/12 14:06:28;;;;;;;15.07;10.55;;;;;;;;;;5114335;28;20531;-66
2021/04/12 14:08:56;;;;;;;13.50;10.63;;;;;;;;;;5114019;28;20031;-66
2021/04/12 14:11:34;;;;;;;14.70;11.30;;;;;;;;;;5114949;28;20408;-67
2021/04/12 14:14:09;;;;;;;12.45;9.02;;;;;;;;;;5114553;28;20496;-67
2021/04/12 14:16:37;;;;;;;12.05;8.45;;;;;;;;;;5114522;28;20028;-67
2021/04/12 14:19:13;;;;;;;13.95;10.27;;;;;;;;;;5115157;28;20103;-67
2021/04/12 14:21:47;;;;;;;15.07;11.00;;;;;;;;;;5129379;27;20026;-72
2021/04/12 14:24:13;;;;;;;14.05;11.00;;;;;;;;;;5115019;28;20068;-69
2021/04/12 14:26:41;;;;;;;12.68;10.65;;;;;;;;;;5097843;28;20028;-72
2021/04/12 14:29:30;;;;;;;13.23;10.15;;;;;;;;;;5103769;28;20113;-73
2021/04/12 14:32:16;;;;;;;12.27;8.68;;;;;;;;;;5112439;28;20497;-72
2021/04/12 14:34:52;;;;;;;14.02;10.00;;;;;;;;;;5110977;27;20041;-67
2021/04/12 14:37:27;;;;;;;13.45;8.65;;;;;;;;;;5095150;28;20381;-66
2021/04/12 14:40:06;;;;;;;9.43;7.28;;;;;;;;;;5112342;28;20028;-67
2021/04/12 14:42:34;;;;;;;11.57;8.48;;;;;;;;;;5112335;28;20023;-67
2021/04/12 14:45:00;;;;;;;9.77;8.40;;;;;;;;;;5114115;28;20032;-66
2021/04/12 14:47:28;;;;;;;10.93;8.88;;;;;;;;;;5114593;28;20038;-67
2021/04/12 14:50:15;;;;;;;12.63;8.82;;;;;;;;;;5114635;28;20023;-66
2021/04/12 14:52:52;;;;;;;10.85;8.32;;;;;;;;;;5115175;28;20426;-67
2021/04/12 14:55:17;;;;;;;12.00;8.13;;;;;;;;;;5113434;28;20455;-66
2021/04/12 14:57:43;;;;;;;12.25;9.30;;;;;;;;;;5114331;28;20119;-67
2021/04/12 15:00:14;;;;;;;9.80;8.50;;;;;;;;;;5114616;28;20031;-66
2021/04/12 15:02:59;;;;;;;11.05;8.52;;;;;;;;;;5113678;28;20031;-66
2021/04/12 15:05:31;;;;;;;12.20;9.02;;;;;;;;;;5114484;28;20048;-67
2021/04/12 15:07:59;;;;;;;11.73;9.25;;;;;;;;;;5114457;28;20032;-67
2021/04/12 15:10:32;;;;;;;10.65;8.20;;;;;;;;;;5113986;28;20058;-67
2021/04/12 15:13:18;;;;;;;9.50;7.75;;;;;;;;;;5113747;28;20036;-67
2021/04/12 15:15:45;;;;;;;9.98;7.55;;;;;;;;;;5062468;28;20099;-67
2021/04/12 15:18:16;;;;;;;9.68;8.20;;;;;;;;;;5101947;28;20020;-67
2021/04/12 15:20:47;;;;;;;12.25;8.77;;;;;;;;;;5094308;28;20028;-66
2021/04/12 15:23:15;;;;;;;8.73;6.95;;;;;;;;;;5100492;28;20031;-66
2021/04/12 15:26:04;;;;;;;8.65;7.32;;;;;;;;;;5114474;28;20125;-58
2021/04/12 15:28:30;;;;;;;12.20;9.52;;;;;;;;;;5098661;28;20070;-67
2021/04/12 15:30:56;;;;;;;15.73;10.15;;;;;;;;;;5114240;28;20019;-66
2021/04/12 15:33:23;;;;;;;14.88;10.82;;;;;;;;;;5114311;28;20382;-66